createdAt,value
2018-08-11T00:01:07.220Z,16.04
2018-08-11T00:03:36.467Z,16.04
2018-08-11T00:06:05.777Z,16.02
2018-08-11T00:08:35.288Z,15.98
2018-08-11T00:11:04.626Z,15.91
2018-08-11T00:13:34.187Z,15.96
2018-08-11T00:16:03.732Z,15.96
2018-08-11T00:18:33.417Z,15.94
2018-08-11T00:21:02.669Z,15.92
2018-08-11T00:23:32.289Z,15.95
2018-08-11T00:26:01.705Z,15.92
2018-08-11T00:28:30.984Z,15.98
2018-08-11T00:31:00.612Z,15.97
2018-08-11T00:33:29.891Z,15.95
2018-08-11T00:35:59.203Z,15.94
2018-08-11T00:38:28.928Z,15.95
2018-08-11T00:40:58.648Z,15.98
2018-08-11T00:43:27.950Z,15.97
2018-08-11T00:45:57.532Z,15.97
2018-08-11T00:48:27.167Z,16.03
2018-08-11T00:50:56.558Z,16.03
2018-08-11T00:53:25.946Z,16.05
2018-08-11T00:55:55.445Z,16.07
2018-08-11T00:58:24.747Z,16.08
2018-08-11T01:00:54.418Z,16.13
2018-08-11T01:03:23.964Z,16.13
2018-08-11T01:05:54.041Z,16.16
2018-08-11T01:08:23.374Z,16.19
2018-08-11T01:10:52.788Z,16.23
2018-08-11T01:13:22.467Z,16.24
2018-08-11T01:15:51.899Z,16.26
2018-08-11T01:18:21.173Z,16.27
2018-08-11T01:20:50.499Z,16.33
2018-08-11T01:23:19.769Z,16.35
2018-08-11T01:25:49.214Z,16.43
2018-08-11T01:28:18.581Z,16.44
2018-08-11T01:30:47.942Z,16.51
2018-08-11T01:33:17.193Z,16.54
2018-08-11T01:35:47.120Z,16.52
2018-08-11T01:38:16.372Z,16.51
2018-08-11T01:40:45.825Z,16.53
2018-08-11T01:43:15.851Z,16.52
2018-08-11T01:45:45.173Z,16.53
2018-08-11T01:48:14.474Z,16.52
2018-08-11T01:50:43.794Z,16.44
2018-08-11T01:53:13.081Z,16.39
2018-08-11T01:55:42.454Z,16.38
2018-08-11T01:58:11.784Z,16.35
2018-08-11T02:00:41.037Z,16.35
2018-08-11T02:03:10.269Z,16.34
2018-08-11T02:05:39.647Z,16.29
2018-08-11T02:08:08.836Z,16.31
2018-08-11T02:10:38.094Z,16.27
2018-08-11T02:13:07.566Z,16.22
2018-08-11T02:15:36.797Z,16.23
2018-08-11T02:18:06.261Z,16.21
2018-08-11T02:20:36.443Z,16.28
2018-08-11T02:23:06.069Z,16.34
2018-08-11T02:25:35.322Z,16.42
2018-08-11T02:28:05.542Z,16.49
2018-08-11T02:30:34.874Z,16.58
2018-08-11T02:33:04.727Z,16.63
2018-08-11T02:35:33.958Z,16.64
2018-08-11T02:38:03.361Z,16.67
2018-08-11T02:40:33.761Z,16.63
2018-08-11T02:43:03.759Z,16.68
2018-08-11T02:45:32.957Z,16.72
2018-08-11T02:48:02.285Z,16.76
2018-08-11T02:50:33.071Z,16.75
2018-08-11T02:53:02.314Z,16.79
2018-08-11T02:55:31.602Z,16.77
2018-08-11T02:58:00.815Z,16.70
2018-08-11T03:00:30.086Z,16.68
2018-08-11T03:02:59.538Z,16.66
2018-08-11T03:05:28.919Z,16.67
2018-08-11T03:07:58.655Z,16.63
2018-08-11T03:10:28.398Z,16.66
2018-08-11T03:12:59.609Z,16.61
2018-08-11T03:15:29.049Z,16.62
2018-08-11T03:17:58.635Z,16.57
2018-08-11T03:20:27.997Z,16.61
2018-08-11T03:22:57.402Z,16.55
2018-08-11T03:25:26.852Z,16.57
2018-08-11T03:27:56.574Z,16.61
2018-08-11T03:30:26.093Z,16.56
2018-08-11T03:32:55.589Z,16.60
2018-08-11T03:35:24.989Z,16.59
2018-08-11T03:37:54.440Z,16.57
2018-08-11T03:40:23.910Z,16.57
2018-08-11T03:42:53.355Z,16.52
2018-08-11T03:45:22.942Z,16.43
2018-08-11T03:47:52.317Z,16.44
2018-08-11T03:50:22.293Z,16.40
2018-08-11T03:52:52.389Z,16.44
2018-08-11T03:55:21.667Z,16.41
2018-08-11T03:57:51.054Z,16.43
2018-08-11T04:00:20.366Z,16.39
2018-08-11T04:02:49.669Z,16.41
2018-08-11T04:05:19.017Z,16.42
2018-08-11T04:07:48.974Z,16.52
2018-08-11T04:10:18.213Z,16.53
2018-08-11T04:12:48.240Z,16.56
2018-08-11T04:15:17.442Z,16.53
2018-08-11T04:17:46.678Z,16.45
2018-08-11T04:20:16.728Z,16.48
2018-08-11T04:22:45.969Z,16.48
2018-08-11T04:25:15.328Z,16.61
2018-08-11T04:27:44.745Z,16.53
2018-08-11T04:30:13.944Z,16.60
2018-08-11T04:32:43.357Z,16.55
2018-08-11T04:35:12.621Z,16.47
2018-08-11T04:37:41.864Z,16.34
2018-08-11T04:40:11.144Z,16.25
2018-08-11T04:42:40.436Z,16.16
2018-08-11T04:45:09.693Z,15.99
2018-08-11T04:47:39.393Z,15.82
2018-08-11T04:50:08.629Z,15.68
2018-08-11T04:52:37.900Z,15.50
2018-08-11T04:55:07.401Z,15.28
2018-08-11T04:57:36.737Z,15.23
2018-08-11T05:00:06.611Z,15.15
2018-08-11T05:02:35.835Z,14.86
2018-08-11T05:05:06.226Z,14.87
2018-08-11T05:07:35.465Z,14.86
2018-08-11T05:10:05.389Z,14.77
2018-08-11T05:12:34.696Z,14.70
2018-08-11T05:15:04.616Z,14.67
2018-08-11T05:17:33.858Z,14.59
2018-08-11T05:20:03.512Z,14.56
2018-08-11T05:22:32.884Z,14.52
2018-08-11T05:25:02.264Z,14.50
2018-08-11T05:27:31.574Z,14.50
2018-08-11T05:30:00.881Z,14.51
2018-08-11T05:32:30.120Z,14.50
2018-08-11T05:35:00.190Z,14.49
2018-08-11T05:37:29.490Z,14.46
2018-08-11T05:39:58.868Z,14.49
2018-08-11T05:42:28.561Z,14.46
2018-08-11T05:44:58.037Z,14.50
2018-08-11T05:47:27.776Z,14.50
2018-08-11T05:49:57.959Z,14.44
2018-08-11T05:52:27.538Z,14.46
2018-08-11T05:54:56.992Z,14.44
2018-08-11T05:57:26.507Z,14.40
2018-08-11T05:59:56.021Z,14.43
2018-08-11T06:02:25.403Z,14.42
2018-08-11T06:04:55.685Z,14.51
2018-08-11T06:07:25.949Z,14.56
2018-08-11T06:09:55.617Z,14.64
2018-08-11T06:12:25.426Z,14.65
2018-08-11T06:14:54.907Z,14.66
2018-08-11T06:17:24.413Z,14.73
2018-08-11T06:19:54.379Z,14.77
2018-08-11T06:22:23.774Z,14.90
2018-08-11T06:24:53.099Z,14.83
2018-08-11T06:27:23.317Z,14.85
2018-08-11T06:29:52.617Z,14.90
2018-08-11T06:32:22.009Z,14.94
2018-08-11T06:34:51.461Z,14.93
2018-08-11T06:37:20.733Z,14.94
2018-08-11T06:39:49.994Z,14.96
2018-08-11T06:42:19.287Z,14.94
2018-08-11T06:44:48.493Z,14.96
2018-08-11T06:47:17.819Z,15.11
2018-08-11T06:49:47.753Z,15.18
2018-08-11T06:52:17.809Z,15.18
2018-08-11T06:54:47.123Z,15.18
2018-08-11T06:57:17.375Z,15.26
2018-08-11T06:59:47.102Z,15.38
2018-08-11T07:02:16.323Z,15.36
2018-08-11T07:04:45.603Z,15.41
2018-08-11T07:07:14.947Z,15.49
2018-08-11T07:09:44.295Z,15.56
2018-08-11T07:12:13.853Z,15.67
2018-08-11T07:14:43.075Z,15.59
2018-08-11T07:17:13.051Z,15.74
2018-08-11T07:19:43.637Z,15.65
2018-08-11T07:22:12.881Z,15.57
2018-08-11T07:24:42.125Z,15.81
2018-08-11T07:27:12.224Z,15.94
2018-08-11T07:29:41.453Z,15.96
2018-08-11T07:32:10.737Z,16.09
2018-08-11T07:34:40.736Z,16.06
2018-08-11T07:37:09.997Z,16.03
2018-08-11T07:39:40.443Z,16.10
2018-08-11T07:42:09.718Z,16.08
2018-08-11T07:45:41.916Z,16.19
2018-08-11T07:48:12.405Z,16.38
2018-08-11T07:50:41.987Z,16.58
2018-08-11T07:53:11.339Z,16.91
2018-08-11T07:55:41.629Z,16.93
2018-08-11T07:58:10.902Z,16.90
2018-08-11T08:00:40.348Z,17.04
2018-08-11T08:03:10.060Z,17.10
2018-08-11T08:05:39.375Z,17.13
2018-08-11T08:08:08.623Z,17.26
2018-08-11T08:10:38.200Z,17.50
2018-08-11T08:13:07.489Z,17.64
2018-08-11T08:15:36.861Z,17.80
2018-08-11T08:18:07.684Z,17.76
2018-08-11T08:20:39.922Z,17.85
2018-08-11T08:23:09.237Z,17.91
2018-08-11T08:25:40.571Z,17.87
2018-08-11T08:28:09.852Z,18.03
2018-08-11T08:30:40.474Z,18.23
2018-08-11T08:33:09.773Z,18.26
2018-08-11T08:35:39.277Z,18.42
2018-08-11T08:38:08.654Z,18.56
2018-08-11T08:40:38.084Z,18.54
2018-08-11T08:43:07.585Z,18.62
2018-08-11T08:45:36.888Z,18.79
2018-08-11T08:48:06.366Z,18.79
2018-08-11T08:50:36.185Z,19.00
2018-08-11T08:53:05.458Z,19.15
2018-08-11T08:55:34.705Z,19.40
2018-08-11T08:58:03.988Z,19.40
2018-08-11T09:00:33.773Z,19.43
2018-08-11T09:03:04.325Z,19.37
2018-08-11T09:05:33.859Z,19.36
2018-08-11T09:08:03.881Z,19.46
2018-08-11T09:10:33.180Z,19.75
2018-08-11T09:13:02.698Z,19.72
2018-08-11T09:15:32.747Z,19.94
2018-08-11T09:18:02.061Z,19.96
2018-08-11T09:20:31.683Z,19.96
2018-08-11T09:23:01.186Z,19.68
2018-08-11T09:25:30.522Z,19.29
2018-08-11T09:28:00.262Z,18.55
2018-08-11T09:30:29.706Z,17.44
2018-08-11T09:32:59.103Z,16.94
2018-08-11T09:35:28.786Z,16.66
2018-08-11T09:37:58.625Z,16.54
2018-08-11T09:40:28.053Z,16.52
2018-08-11T09:42:57.450Z,16.59
2018-08-11T09:45:27.078Z,17.06
2018-08-11T09:47:56.713Z,17.83
2018-08-11T09:50:26.156Z,18.94
2018-08-11T09:52:56.308Z,19.65
2018-08-11T09:55:25.812Z,20.54
2018-08-11T09:57:55.414Z,20.85
2018-08-11T10:00:30.549Z,20.83
2018-08-11T10:02:59.862Z,21.31
2018-08-11T10:05:29.337Z,21.39
2018-08-11T10:07:59.306Z,22.16
2018-08-11T10:10:28.711Z,22.24
2018-08-11T10:12:58.096Z,22.09
2018-08-11T10:15:28.512Z,21.06
2018-08-11T10:17:58.126Z,20.07
2018-08-11T10:20:27.937Z,19.73
2018-08-11T10:22:58.636Z,19.29
2018-08-11T10:25:28.397Z,19.01
2018-08-11T10:27:58.176Z,18.74
2018-08-11T10:30:27.980Z,18.75
2018-08-11T10:32:57.973Z,18.52
2018-08-11T10:35:27.391Z,18.54
2018-08-11T10:37:56.960Z,18.36
2018-08-11T10:40:26.829Z,18.75
2018-08-11T10:42:56.337Z,19.31
2018-08-11T10:45:26.835Z,19.60
2018-08-11T10:47:56.974Z,19.50
2018-08-11T10:50:26.818Z,19.67
2018-08-11T10:52:57.512Z,20.53
2018-08-11T10:55:28.022Z,20.91
2018-08-11T10:57:57.684Z,20.61
2018-08-11T11:00:27.471Z,20.66
2018-08-11T11:02:57.053Z,20.73
2018-08-11T11:05:26.689Z,21.03
2018-08-11T11:07:56.117Z,20.68
2018-08-11T11:10:25.714Z,20.61
2018-08-11T11:12:55.297Z,20.53
2018-08-11T11:15:25.781Z,20.41
2018-08-11T11:17:55.231Z,20.54
2018-08-11T11:20:24.770Z,20.44
2018-08-11T11:22:54.304Z,19.85
2018-08-11T11:25:24.173Z,19.32
2018-08-11T11:27:53.717Z,18.63
2018-08-11T11:30:24.171Z,18.21
2018-08-11T11:32:54.320Z,17.60
2018-08-11T11:35:24.140Z,17.24
2018-08-11T11:37:54.241Z,16.78
2018-08-11T11:40:23.755Z,16.48
2018-08-11T11:42:53.755Z,16.18
2018-08-11T11:45:24.049Z,15.90
2018-08-11T11:47:55.153Z,15.83
2018-08-11T11:50:24.629Z,15.82
2018-08-11T11:52:56.979Z,15.87
2018-08-11T11:55:26.435Z,15.92
2018-08-11T11:57:57.849Z,16.00
2018-08-11T12:00:28.547Z,16.19
2018-08-11T12:02:58.203Z,16.27
2018-08-11T12:05:27.626Z,16.30
2018-08-11T12:07:56.955Z,16.38
2018-08-11T12:10:26.456Z,16.39
2018-08-11T12:12:56.088Z,16.42
2018-08-11T12:15:25.925Z,16.40
2018-08-11T12:17:55.559Z,16.28
2018-08-11T12:20:24.992Z,16.19
2018-08-11T12:22:54.638Z,16.26
2018-08-11T12:25:26.027Z,16.98
2018-08-11T12:27:56.781Z,18.16
2018-08-11T12:30:26.636Z,18.89
2018-08-11T12:32:57.761Z,19.85
2018-08-11T12:35:27.515Z,20.25
2018-08-11T12:37:57.220Z,20.57
2018-08-11T12:40:27.039Z,20.63
2018-08-11T12:45:36.595Z,20.38
2018-08-11T12:48:06.315Z,20.58
2018-08-11T12:50:36.106Z,20.70
2018-08-11T12:53:05.862Z,21.10
2018-08-11T12:55:36.225Z,21.47
2018-08-11T12:58:06.529Z,21.99
2018-08-11T13:00:35.929Z,22.03
2018-08-11T13:03:05.684Z,21.60
2018-08-11T13:05:35.194Z,21.15
2018-08-11T13:08:04.525Z,20.38
2018-08-11T13:10:34.024Z,19.98
2018-08-11T13:13:03.507Z,19.70
2018-08-11T13:15:33.951Z,19.17
2018-08-11T13:18:03.339Z,18.66
2018-08-11T13:20:32.925Z,17.45
2018-08-11T13:23:02.659Z,16.82
2018-08-11T13:25:32.129Z,16.36
2018-08-11T13:28:03.576Z,16.09
2018-08-11T13:30:33.084Z,15.95
2018-08-11T13:33:02.570Z,16.02
2018-08-11T13:35:33.284Z,16.41
2018-08-11T13:40:10.350Z,16.69
2018-08-11T13:42:40.040Z,17.36
2018-08-11T13:45:09.395Z,18.30
2018-08-11T13:47:38.662Z,18.13
2018-08-11T13:50:09.018Z,18.06
2018-08-11T13:52:38.338Z,18.43
2018-08-11T13:55:07.880Z,19.15
2018-08-11T13:57:37.852Z,19.76
2018-08-11T14:00:08.190Z,20.08
2018-08-11T14:02:37.503Z,20.11
2018-08-11T14:05:07.267Z,20.59
2018-08-11T14:07:36.811Z,20.98
2018-08-11T14:10:07.925Z,21.33
2018-08-11T14:12:37.393Z,21.94
2018-08-11T14:15:07.250Z,21.70
2018-08-11T14:17:36.535Z,21.40
2018-08-11T14:20:07.145Z,21.50
2018-08-11T14:22:36.749Z,21.98
2018-08-11T14:25:06.670Z,21.91
2018-08-11T14:27:35.993Z,21.70
2018-08-11T14:30:07.477Z,21.26
2018-08-11T14:32:36.957Z,20.90
2018-08-11T14:35:06.242Z,20.66
2018-08-11T14:37:46.214Z,20.54
2018-08-11T14:40:15.628Z,20.27
2018-08-11T14:42:49.333Z,20.51
2018-08-11T14:45:19.194Z,20.86
2018-08-11T14:47:49.256Z,21.40
2018-08-11T14:50:19.111Z,21.10
2018-08-11T14:52:48.815Z,21.06
2018-08-11T14:55:18.143Z,21.58
2018-08-11T14:57:47.411Z,22.04
2018-08-11T15:00:16.791Z,22.51
2018-08-11T15:02:46.479Z,22.84
2018-08-11T15:05:16.530Z,23.10
2018-08-11T15:07:46.539Z,23.06
2018-08-11T15:10:15.861Z,23.07
2018-08-11T15:12:45.989Z,23.11
2018-08-11T15:15:15.319Z,23.35
2018-08-11T15:17:44.593Z,23.09
2018-08-11T15:20:14.219Z,22.10
2018-08-11T15:22:43.486Z,21.57
2018-08-11T15:25:12.720Z,21.62
2018-08-11T15:27:42.008Z,21.20
2018-08-11T15:30:12.658Z,21.19
2018-08-11T15:32:41.885Z,21.48
2018-08-11T15:35:11.261Z,21.84
2018-08-11T15:37:40.673Z,21.78
2018-08-11T15:40:09.994Z,22.24
2018-08-11T15:42:39.753Z,22.72
2018-08-11T15:45:08.981Z,23.00
2018-08-11T15:47:38.374Z,22.68
2018-08-11T15:50:07.688Z,22.22
2018-08-11T15:52:37.168Z,21.45
2018-08-11T15:55:08.012Z,20.95
2018-08-11T15:57:37.596Z,20.25
2018-08-11T16:00:08.218Z,19.72
2018-08-11T16:02:37.776Z,19.58
2018-08-11T16:05:07.267Z,19.42
2018-08-11T16:07:37.204Z,19.44
2018-08-11T16:10:07.261Z,19.44
2018-08-11T16:12:36.573Z,19.49
2018-08-11T16:15:06.029Z,19.55
2018-08-11T16:17:35.810Z,19.51
2018-08-11T16:20:05.303Z,19.47
2018-08-11T16:22:36.387Z,19.44
2018-08-11T16:25:05.720Z,19.24
2018-08-11T16:27:35.067Z,19.07
2018-08-11T16:30:05.138Z,19.04
2018-08-11T16:32:45.056Z,19.01
2018-08-11T16:35:15.193Z,19.11
2018-08-11T16:37:44.452Z,19.04
2018-08-11T16:40:13.762Z,18.95
2018-08-11T16:42:44.542Z,18.94
2018-08-11T16:45:13.920Z,18.97
2018-08-11T16:47:43.279Z,18.99
2018-08-11T16:50:12.621Z,18.90
2018-08-11T16:52:41.917Z,18.81
2018-08-11T16:55:11.198Z,18.74
2018-08-11T16:57:40.618Z,18.56
2018-08-11T17:00:11.801Z,18.52
2018-08-11T17:02:41.860Z,18.46
2018-08-11T17:05:11.394Z,18.39
2018-08-11T17:07:40.767Z,18.40
2018-08-11T17:10:10.920Z,18.44
2018-08-11T17:12:40.485Z,18.49
2018-08-11T17:15:10.503Z,18.46
2018-08-11T17:17:39.773Z,18.46
2018-08-11T17:20:09.089Z,18.38
2018-08-11T17:22:38.306Z,18.34
2018-08-11T17:25:08.877Z,18.33
2018-08-11T17:27:38.353Z,18.34
2018-08-11T17:30:07.808Z,18.42
2018-08-11T17:32:38.095Z,18.43
2018-08-11T17:35:07.707Z,18.41
2018-08-11T17:37:37.016Z,18.39
2018-08-11T17:40:08.221Z,18.34
2018-08-11T17:42:37.746Z,18.30
2018-08-11T17:45:07.419Z,18.17
2018-08-11T17:47:37.129Z,18.12
2018-08-11T17:50:07.030Z,18.06
2018-08-11T17:52:36.717Z,17.92
2018-08-11T17:55:06.222Z,17.83
2018-08-11T17:57:35.710Z,17.72
2018-08-11T18:00:05.872Z,17.70
2018-08-11T18:02:36.597Z,17.66
2018-08-11T18:05:06.631Z,17.64
2018-08-11T18:07:36.389Z,17.63
2018-08-11T18:10:06.330Z,17.60
2018-08-11T18:12:36.049Z,17.68
2018-08-11T18:15:06.065Z,17.66
2018-08-11T18:17:35.801Z,17.67
2018-08-11T18:20:05.649Z,17.66
2018-08-11T18:22:34.983Z,17.63
2018-08-11T18:25:05.395Z,17.63
2018-08-11T18:27:35.128Z,17.54
2018-08-11T18:30:05.259Z,17.47
2018-08-11T18:32:35.358Z,17.34
2018-08-11T18:35:05.080Z,17.28
2018-08-11T18:37:34.675Z,17.21
2018-08-11T18:40:05.288Z,17.18
2018-08-11T18:42:35.051Z,17.13
2018-08-11T18:45:05.154Z,17.07
2018-08-11T18:47:35.902Z,17.01
2018-08-11T18:50:05.567Z,16.96
2018-08-11T18:52:35.596Z,16.92
2018-08-11T18:55:06.949Z,16.84
2018-08-11T18:57:36.745Z,16.75
2018-08-11T19:00:11.282Z,16.65
2018-08-11T19:02:41.422Z,16.59
2018-08-11T19:05:10.861Z,16.55
2018-08-11T19:07:41.447Z,16.53
2018-08-11T19:10:12.101Z,16.53
2018-08-11T19:12:41.541Z,16.48
2018-08-11T19:15:13.562Z,16.45
2018-08-11T19:17:42.927Z,16.41
2018-08-11T19:20:13.303Z,16.39
2018-08-11T19:22:43.265Z,16.39
2018-08-11T19:25:13.292Z,16.36
2018-08-11T19:27:42.610Z,16.36
2018-08-11T19:30:13.209Z,16.36
2018-08-11T19:32:42.659Z,16.36
2018-08-11T19:35:11.970Z,16.28
2018-08-11T19:37:41.377Z,16.23
2018-08-11T19:40:10.873Z,16.18
2018-08-11T19:42:40.313Z,16.12
2018-08-11T19:45:11.632Z,16.06
2018-08-11T19:47:41.957Z,16.06
2018-08-11T19:50:12.961Z,16.06
2018-08-11T19:52:42.552Z,16.02
2018-08-11T19:55:11.830Z,16.07
2018-08-11T19:57:41.695Z,16.07
2018-08-11T20:00:13.146Z,16.04
2018-08-11T20:02:43.109Z,16.05
2018-08-11T20:05:12.678Z,16.01
2018-08-11T20:07:41.965Z,15.98
2018-08-11T20:10:12.156Z,15.94
2018-08-11T20:12:41.956Z,15.93
2018-08-11T20:15:11.265Z,15.87
2018-08-11T20:17:40.688Z,15.86
2018-08-11T20:20:10.853Z,15.82
2018-08-11T20:22:40.196Z,15.80
2018-08-11T20:25:10.216Z,15.75
2018-08-11T20:27:39.549Z,15.78
2018-08-11T20:30:10.265Z,15.78
2018-08-11T20:32:39.643Z,15.75
2018-08-11T20:35:08.962Z,15.72
2018-08-11T20:37:38.237Z,15.73
2018-08-11T20:40:08.686Z,15.74
2018-08-11T20:42:38.192Z,15.71
2018-08-11T20:45:08.877Z,15.71
2018-08-11T20:47:38.251Z,15.65
2018-08-11T20:50:08.330Z,15.67
2018-08-11T20:52:39.257Z,15.59
2018-08-11T20:55:09.273Z,15.57
2018-08-11T20:57:38.793Z,15.58
2018-08-11T21:00:10.360Z,15.54
2018-08-11T21:02:40.355Z,15.51
2018-08-11T21:05:13.220Z,15.45
2018-08-11T21:07:42.640Z,15.43
2018-08-11T21:10:14.327Z,15.43
2018-08-11T21:12:44.320Z,15.39
2018-08-11T21:15:13.888Z,15.38
2018-08-11T21:17:43.488Z,15.34
2018-08-11T21:20:14.057Z,15.36
2018-08-11T21:22:43.798Z,15.29
2018-08-11T21:25:13.400Z,15.29
2018-08-11T21:27:42.853Z,15.25
2018-08-11T21:30:13.740Z,15.18
2018-08-11T21:32:43.357Z,15.17
2018-08-11T21:35:12.595Z,15.18
2018-08-11T21:37:41.991Z,15.16
2018-08-11T21:40:14.971Z,15.14
2018-08-11T21:42:44.752Z,15.12
2018-08-11T21:45:14.158Z,15.12
2018-08-11T21:47:43.640Z,15.14
2018-08-11T21:50:12.925Z,15.11
2018-08-11T21:52:42.225Z,15.09
2018-08-11T21:55:12.301Z,15.11
2018-08-11T21:57:41.784Z,15.12
2018-08-11T22:00:46.166Z,15.18
2018-08-11T22:03:16.133Z,15.18
2018-08-11T22:05:45.598Z,15.17
2018-08-11T22:08:15.352Z,15.20
2018-08-11T22:10:45.454Z,15.22
2018-08-11T22:13:15.019Z,15.19
2018-08-11T22:15:44.541Z,15.28
2018-08-11T22:18:13.999Z,15.32
2018-08-11T22:20:43.795Z,15.37
2018-08-11T22:23:13.168Z,15.39
2018-08-11T22:25:42.751Z,15.42
2018-08-11T22:28:12.107Z,15.45
2018-08-11T22:30:41.753Z,15.45
2018-08-11T22:33:11.286Z,15.45
2018-08-11T22:35:40.827Z,15.23
2018-08-11T22:38:10.661Z,15.28
2018-08-11T22:40:39.952Z,15.29
2018-08-11T22:43:09.273Z,15.17
2018-08-11T22:45:38.713Z,15.27
2018-08-11T22:48:08.103Z,15.26
2018-08-11T22:50:37.394Z,15.23
2018-08-11T22:53:07.440Z,15.20
2018-08-11T22:55:37.735Z,15.16
2018-08-11T22:58:07.610Z,15.11
2018-08-11T23:00:37.108Z,15.11
2018-08-11T23:03:06.633Z,15.13
2018-08-11T23:05:37.205Z,15.08
2018-08-11T23:08:06.447Z,14.94
2018-08-11T23:10:35.767Z,14.84
2018-08-11T23:13:05.178Z,14.91
2018-08-11T23:15:34.723Z,14.78
2018-08-11T23:18:04.688Z,14.66
2018-08-11T23:20:34.325Z,14.58
2018-08-11T23:23:03.820Z,14.64
2018-08-11T23:25:33.365Z,14.65
2018-08-11T23:28:02.905Z,14.77
2018-08-11T23:30:32.474Z,14.57
2018-08-11T23:33:01.980Z,14.59
2018-08-11T23:35:31.762Z,14.62
2018-08-11T23:38:01.265Z,14.68
2018-08-11T23:40:31.186Z,14.66
2018-08-11T23:43:00.929Z,14.70
2018-08-11T23:45:32.047Z,14.66
2018-08-11T23:48:01.611Z,14.65
2018-08-11T23:50:31.079Z,14.62
2018-08-11T23:53:01.368Z,14.58
2018-08-11T23:55:30.829Z,14.58
2018-08-11T23:58:00.524Z,14.55
